sensor_id;sensor_type;location;lat;lon;timestamp;P1;P2;P0
77365;PMS5003;66430;50.182;11.704;2023-04-25T00:00:43;16;16;
77365;PMS5003;66430;50.182;11.704;2023-04-25T00:03:09;22;19;
77365;PMS5003;66430;50.182;11.704;2023-04-25T00:05:35;20;20;
77365;PMS5003;66430;50.182;11.704;2023-04-25T00:08:00;15;14;
77365;PMS5003;66430;50.182;11.704;2023-04-25T00:10:26;17;14;
77365;PMS5003;66430;50.182;11.704;2023-04-25T00:12:51;19;16;
77365;PMS5003;66430;50.182;11.704;2023-04-25T00:15:16;17;17;
77365;PMS5003;66430;50.182;11.704;2023-04-25T00:17:41;17;15;
77365;PMS5003;66430;50.182;11.704;2023-04-25T00:20:07;13;13;
77365;PMS5003;66430;50.182;11.704;2023-04-25T00:22:32;17;15;
77365;PMS5003;66430;50.182;11.704;2023-04-25T00:24:57;17;16;
77365;PMS5003;66430;50.182;11.704;2023-04-25T00:27:23;13;12;
77365;PMS5003;66430;50.182;11.704;2023-04-25T00:29:48;18;15;
77365;PMS5003;66430;50.182;11.704;2023-04-25T00:32:14;14;13;
77365;PMS5003;66430;50.182;11.704;2023-04-25T00:34:39;17;17;
77365;PMS5003;66430;50.182;11.704;2023-04-25T00:37:04;15;14;
77365;PMS5003;66430;50.182;11.704;2023-04-25T00:39:30;15;15;
77365;PMS5003;66430;50.182;11.704;2023-04-25T00:41:55;11;11;
77365;PMS5003;66430;50.182;11.704;2023-04-25T00:44:20;16;14;
77365;PMS5003;66430;50.182;11.704;2023-04-25T00:46:46;20;19;
77365;PMS5003;66430;50.182;11.704;2023-04-25T00:49:11;18;18;
77365;PMS5003;66430;50.182;11.704;2023-04-25T00:51:36;16;15;
77365;PMS5003;66430;50.182;11.704;2023-04-25T00:54:02;16;16;
77365;PMS5003;66430;50.182;11.704;2023-04-25T00:56:27;19;17;
77365;PMS5003;66430;50.182;11.704;2023-04-25T00:58:53;15;15;
77365;PMS5003;66430;50.182;11.704;2023-04-25T01:01:18;16;12;
77365;PMS5003;66430;50.182;11.704;2023-04-25T01:03:43;18;18;
77365;PMS5003;66430;50.182;11.704;2023-04-25T01:06:09;16;15;
77365;PMS5003;66430;50.182;11.704;2023-04-25T01:08:34;16;15;
77365;PMS5003;66430;50.182;11.704;2023-04-25T01:10:59;16;15;
77365;PMS5003;66430;50.182;11.704;2023-04-25T01:13:25;13;12;
77365;PMS5003;66430;50.182;11.704;2023-04-25T01:15:51;18;17;
77365;PMS5003;66430;50.182;11.704;2023-04-25T01:18:16;14;13;
77365;PMS5003;66430;50.182;11.704;2023-04-25T01:20:42;18;17;
77365;PMS5003;66430;50.182;11.704;2023-04-25T01:23:07;22;19;
77365;PMS5003;66430;50.182;11.704;2023-04-25T01:25:32;19;18;
77365;PMS5003;66430;50.182;11.704;2023-04-25T01:27:58;14;12;
77365;PMS5003;66430;50.182;11.704;2023-04-25T01:30:24;22;20;
77365;PMS5003;66430;50.182;11.704;2023-04-25T01:32:49;17;15;
77365;PMS5003;66430;50.182;11.704;2023-04-25T01:35:14;14;13;
77365;PMS5003;66430;50.182;11.704;2023-04-25T01:37:40;12;10;
77365;PMS5003;66430;50.182;11.704;2023-04-25T01:40:06;16;15;
77365;PMS5003;66430;50.182;11.704;2023-04-25T01:42:31;14;13;
77365;PMS5003;66430;50.182;11.704;2023-04-25T01:44:56;16;13;
77365;PMS5003;66430;50.182;11.704;2023-04-25T01:47:22;16;15;
77365;PMS5003;66430;50.182;11.704;2023-04-25T01:49:47;15;15;
77365;PMS5003;66430;50.182;11.704;2023-04-25T01:52:13;18;16;
77365;PMS5003;66430;50.182;11.704;2023-04-25T01:54:38;15;15;
77365;PMS5003;66430;50.182;11.704;2023-04-25T01:57:04;18;15;
77365;PMS5003;66430;50.182;11.704;2023-04-25T01:59:29;16;13;
77365;PMS5003;66430;50.182;11.704;2023-04-25T02:01:54;15;14;
77365;PMS5003;66430;50.182;11.704;2023-04-25T02:04:20;15;14;
77365;PMS5003;66430;50.182;11.704;2023-04-25T02:06:45;14;14;
77365;PMS5003;66430;50.182;11.704;2023-04-25T02:09:11;15;14;
77365;PMS5003;66430;50.182;11.704;2023-04-25T02:11:37;17;15;
77365;PMS5003;66430;50.182;11.704;2023-04-25T02:14:02;14;14;
77365;PMS5003;66430;50.182;11.704;2023-04-25T02:16:27;18;16;
77365;PMS5003;66430;50.182;11.704;2023-04-25T02:18:53;13;13;
77365;PMS5003;66430;50.182;11.704;2023-04-25T02:21:18;16;15;
77365;PMS5003;66430;50.182;11.704;2023-04-25T02:23:49;15;14;
77365;PMS5003;66430;50.182;11.704;2023-04-25T02:26:09;16;16;
77365;PMS5003;66430;50.182;11.704;2023-04-25T02:28:34;19;18;
77365;PMS5003;66430;50.182;11.704;2023-04-25T02:31:00;20;19;
77365;PMS5003;66430;50.182;11.704;2023-04-25T02:33:25;19;18;
77365;PMS5003;66430;50.182;11.704;2023-04-25T02:35:51;18;17;
77365;PMS5003;66430;50.182;11.704;2023-04-25T02:38:16;14;14;
77365;PMS5003;66430;50.182;11.704;2023-04-25T02:40:41;15;15;
77365;PMS5003;66430;50.182;11.704;2023-04-25T02:43:07;21;20;
77365;PMS5003;66430;50.182;11.704;2023-04-25T02:45:32;17;16;
77365;PMS5003;66430;50.182;11.704;2023-04-25T02:47:57;23;19;
77365;PMS5003;66430;50.182;11.704;2023-04-25T02:50:23;17;16;
77365;PMS5003;66430;50.182;11.704;2023-04-25T02:52:48;23;20;
77365;PMS5003;66430;50.182;11.704;2023-04-25T02:55:13;15;14;
77365;PMS5003;66430;50.182;11.704;2023-04-25T02:57:39;14;13;
77365;PMS5003;66430;50.182;11.704;2023-04-25T03:00:04;17;15;
77365;PMS5003;66430;50.182;11.704;2023-04-25T03:02:29;16;15;
77365;PMS5003;66430;50.182;11.704;2023-04-25T03:04:55;24;24;
77365;PMS5003;66430;50.182;11.704;2023-04-25T03:07:21;18;17;
77365;PMS5003;66430;50.182;11.704;2023-04-25T03:09:46;20;19;
77365;PMS5003;66430;50.182;11.704;2023-04-25T03:12:12;16;16;
77365;PMS5003;66430;50.182;11.704;2023-04-25T03:14:38;23;21;
77365;PMS5003;66430;50.182;11.704;2023-04-25T03:17:03;21;17;
77365;PMS5003;66430;50.182;11.704;2023-04-25T03:19:29;20;20;
77365;PMS5003;66430;50.182;11.704;2023-04-25T03:21:54;21;19;
77365;PMS5003;66430;50.182;11.704;2023-04-25T03:24:19;19;18;
77365;PMS5003;66430;50.182;11.704;2023-04-25T03:26:44;21;21;
77365;PMS5003;66430;50.182;11.704;2023-04-25T03:29:09;18;18;
77365;PMS5003;66430;50.182;11.704;2023-04-25T03:31:35;22;20;
77365;PMS5003;66430;50.182;11.704;2023-04-25T03:34:00;23;21;
77365;PMS5003;66430;50.182;11.704;2023-04-25T03:36:26;21;21;
77365;PMS5003;66430;50.182;11.704;2023-04-25T03:38:52;17;17;
77365;PMS5003;66430;50.182;11.704;2023-04-25T03:41:17;20;18;
77365;PMS5003;66430;50.182;11.704;2023-04-25T03:43:43;20;18;
77365;PMS5003;66430;50.182;11.704;2023-04-25T03:46:08;19;19;
77365;PMS5003;66430;50.182;11.704;2023-04-25T03:48:34;19;18;
77365;PMS5003;66430;50.182;11.704;2023-04-25T03:51:00;17;17;
77365;PMS5003;66430;50.182;11.704;2023-04-25T03:53:25;20;19;
77365;PMS5003;66430;50.182;11.704;2023-04-25T03:55:51;21;21;
77365;PMS5003;66430;50.182;11.704;2023-04-25T03:58:16;16;14;
77365;PMS5003;66430;50.182;11.704;2023-04-25T04:00:41;17;17;
77365;PMS5003;66430;50.182;11.704;2023-04-25T04:03:07;17;16;
77365;PMS5003;66430;50.182;11.704;2023-04-25T04:05:32;19;18;
77365;PMS5003;66430;50.182;11.704;2023-04-25T04:07:57;15;14;
77365;PMS5003;66430;50.182;11.704;2023-04-25T04:10:23;20;18;
77365;PMS5003;66430;50.182;11.704;2023-04-25T04:12:48;18;17;
77365;PMS5003;66430;50.182;11.704;2023-04-25T04:15:13;21;16;
77365;PMS5003;66430;50.182;11.704;2023-04-25T04:17:39;19;19;
77365;PMS5003;66430;50.182;11.704;2023-04-25T04:20:05;25;24;
77365;PMS5003;66430;50.182;11.704;2023-04-25T04:22:30;20;20;
77365;PMS5003;66430;50.182;11.704;2023-04-25T04:24:56;18;17;
77365;PMS5003;66430;50.182;11.704;2023-04-25T04:27:22;15;15;
77365;PMS5003;66430;50.182;11.704;2023-04-25T04:29:47;23;22;
77365;PMS5003;66430;50.182;11.704;2023-04-25T04:32:12;16;15;
77365;PMS5003;66430;50.182;11.704;2023-04-25T04:34:38;17;17;
77365;PMS5003;66430;50.182;11.704;2023-04-25T04:37:03;19;19;
77365;PMS5003;66430;50.182;11.704;2023-04-25T04:39:29;13;13;
77365;PMS5003;66430;50.182;11.704;2023-04-25T04:41:54;15;15;
77365;PMS5003;66430;50.182;11.704;2023-04-25T04:44:20;10;10;
77365;PMS5003;66430;50.182;11.704;2023-04-25T04:46:46;7;6;
77365;PMS5003;66430;50.182;11.704;2023-04-25T04:49:11;7;7;
77365;PMS5003;66430;50.182;11.704;2023-04-25T04:51:37;4;4;
77365;PMS5003;66430;50.182;11.704;2023-04-25T04:54:03;3;3;
77365;PMS5003;66430;50.182;11.704;2023-04-25T04:56:28;1;1;
77365;PMS5003;66430;50.182;11.704;2023-04-25T04:58:53;4;2;
77365;PMS5003;66430;50.182;11.704;2023-04-25T05:01:24;2;2;
77365;PMS5003;66430;50.182;11.704;2023-04-25T05:03:44;6;4;
77365;PMS5003;66430;50.182;11.704;2023-04-25T05:06:10;3;3;
77365;PMS5003;66430;50.182;11.704;2023-04-25T05:08:40;2;2;
77365;PMS5003;66430;50.182;11.704;2023-04-25T05:11:01;3;3;
77365;PMS5003;66430;50.182;11.704;2023-04-25T05:13:27;3;3;
77365;PMS5003;66430;50.182;11.704;2023-04-25T05:15:52;5;4;
77365;PMS5003;66430;50.182;11.704;2023-04-25T05:18:17;4;4;
77365;PMS5003;66430;50.182;11.704;2023-04-25T05:20:43;3;3;
77365;PMS5003;66430;50.182;11.704;2023-04-25T05:23:09;4;4;
77365;PMS5003;66430;50.182;11.704;2023-04-25T05:25:34;4;4;
77365;PMS5003;66430;50.182;11.704;2023-04-25T05:28:00;3;3;
77365;PMS5003;66430;50.182;11.704;2023-04-25T05:30:25;4;4;
77365;PMS5003;66430;50.182;11.704;2023-04-25T05:32:51;3;3;
77365;PMS5003;66430;50.182;11.704;2023-04-25T05:35:16;3;3;
77365;PMS5003;66430;50.182;11.704;2023-04-25T05:37:42;4;4;
77365;PMS5003;66430;50.182;11.704;2023-04-25T05:40:08;5;5;
77365;PMS5003;66430;50.182;11.704;2023-04-25T05:42:33;5;5;
77365;PMS5003;66430;50.182;11.704;2023-04-25T05:44:58;8;6;
77365;PMS5003;66430;50.182;11.704;2023-04-25T05:47:24;5;5;
77365;PMS5003;66430;50.182;11.704;2023-04-25T05:49:50;6;5;
77365;PMS5003;66430;50.182;11.704;2023-04-25T05:52:14;7;6;
77365;PMS5003;66430;50.182;11.704;2023-04-25T05:54:40;6;6;
77365;PMS5003;66430;50.182;11.704;2023-04-25T05:57:06;4;4;
77365;PMS5003;66430;50.182;11.704;2023-04-25T05:59:31;8;8;
77365;PMS5003;66430;50.182;11.704;2023-04-25T06:01:56;5;5;
77365;PMS5003;66430;50.182;11.704;2023-04-25T06:04:22;7;6;
77365;PMS5003;66430;50.182;11.704;2023-04-25T06:06:47;8;6;
77365;PMS5003;66430;50.182;11.704;2023-04-25T06:09:13;6;6;
77365;PMS5003;66430;50.182;11.704;2023-04-25T06:11:38;7;6;
77365;PMS5003;66430;50.182;11.704;2023-04-25T06:14:05;6;6;
77365;PMS5003;66430;50.182;11.704;2023-04-25T06:16:30;7;7;
77365;PMS5003;66430;50.182;11.704;2023-04-25T06:18:55;6;6;
77365;PMS5003;66430;50.182;11.704;2023-04-25T06:21:20;6;6;
77365;PMS5003;66430;50.182;11.704;2023-04-25T06:23:46;6;6;
77365;PMS5003;66430;50.182;11.704;2023-04-25T06:26:11;6;6;
77365;PMS5003;66430;50.182;11.704;2023-04-25T06:28:37;9;7;
77365;PMS5003;66430;50.182;11.704;2023-04-25T06:31:03;6;6;
77365;PMS5003;66430;50.182;11.704;2023-04-25T06:33:28;5;5;
77365;PMS5003;66430;50.182;11.704;2023-04-25T06:35:54;9;6;
77365;PMS5003;66430;50.182;11.704;2023-04-25T06:38:19;7;6;
77365;PMS5003;66430;50.182;11.704;2023-04-25T06:40:45;7;6;
77365;PMS5003;66430;50.182;11.704;2023-04-25T06:43:10;10;8;
77365;PMS5003;66430;50.182;11.704;2023-04-25T06:45:36;9;8;
77365;PMS5003;66430;50.182;11.704;2023-04-25T06:48:01;16;12;
77365;PMS5003;66430;50.182;11.704;2023-04-25T06:50:26;8;7;
77365;PMS5003;66430;50.182;11.704;2023-04-25T06:52:52;7;7;
77365;PMS5003;66430;50.182;11.704;2023-04-25T06:55:18;15;14;
77365;PMS5003;66430;50.182;11.704;2023-04-25T06:57:43;8;8;
77365;PMS5003;66430;50.182;11.704;2023-04-25T07:00:09;9;9;
77365;PMS5003;66430;50.182;11.704;2023-04-25T07:02:35;8;7;
77365;PMS5003;66430;50.182;11.704;2023-04-25T07:05:00;13;13;
77365;PMS5003;66430;50.182;11.704;2023-04-25T07:07:25;8;8;
77365;PMS5003;66430;50.182;11.704;2023-04-25T07:09:51;11;9;
77365;PMS5003;66430;50.182;11.704;2023-04-25T07:12:16;10;10;
77365;PMS5003;66430;50.182;11.704;2023-04-25T07:14:41;9;9;
77365;PMS5003;66430;50.182;11.704;2023-04-25T07:17:12;9;9;
77365;PMS5003;66430;50.182;11.704;2023-04-25T07:19:32;10;10;
77365;PMS5003;66430;50.182;11.704;2023-04-25T07:21:58;8;7;
77365;PMS5003;66430;50.182;11.704;2023-04-25T07:24:23;12;9;
77365;PMS5003;66430;50.182;11.704;2023-04-25T07:26:48;12;12;
77365;PMS5003;66430;50.182;11.704;2023-04-25T07:29:14;8;8;
77365;PMS5003;66430;50.182;11.704;2023-04-25T07:31:39;13;11;
77365;PMS5003;66430;50.182;11.704;2023-04-25T07:34:10;11;11;
77365;PMS5003;66430;50.182;11.704;2023-04-25T07:36:30;12;11;
77365;PMS5003;66430;50.182;11.704;2023-04-25T07:38:55;11;9;
77365;PMS5003;66430;50.182;11.704;2023-04-25T07:41:21;10;10;
77365;PMS5003;66430;50.182;11.704;2023-04-25T07:43:46;11;10;
77365;PMS5003;66430;50.182;11.704;2023-04-25T07:46:12;11;10;
77365;PMS5003;66430;50.182;11.704;2023-04-25T07:48:37;12;11;
77365;PMS5003;66430;50.182;11.704;2023-04-25T07:51:03;12;11;
77365;PMS5003;66430;50.182;11.704;2023-04-25T07:53:28;13;13;
77365;PMS5003;66430;50.182;11.704;2023-04-25T07:55:54;16;12;
77365;PMS5003;66430;50.182;11.704;2023-04-25T07:58:19;11;11;
77365;PMS5003;66430;50.182;11.704;2023-04-25T08:00:44;10;9;
77365;PMS5003;66430;50.182;11.704;2023-04-25T08:03:10;12;12;
77365;PMS5003;66430;50.182;11.704;2023-04-25T08:05:35;11;11;
77365;PMS5003;66430;50.182;11.704;2023-04-25T08:08:06;12;11;
77365;PMS5003;66430;50.182;11.704;2023-04-25T08:10:26;9;9;
77365;PMS5003;66430;50.182;11.704;2023-04-25T08:12:51;11;11;
77365;PMS5003;66430;50.182;11.704;2023-04-25T08:15:16;12;11;
77365;PMS5003;66430;50.182;11.704;2023-04-25T08:17:42;11;10;
77365;PMS5003;66430;50.182;11.704;2023-04-25T08:20:08;13;12;
77365;PMS5003;66430;50.182;11.704;2023-04-25T08:22:33;11;9;
77365;PMS5003;66430;50.182;11.704;2023-04-25T08:24:58;11;10;
77365;PMS5003;66430;50.182;11.704;2023-04-25T08:27:24;10;10;
77365;PMS5003;66430;50.182;11.704;2023-04-25T08:29:50;14;14;
77365;PMS5003;66430;50.182;11.704;2023-04-25T08:32:15;12;11;
77365;PMS5003;66430;50.182;11.704;2023-04-25T08:34:40;10;10;
77365;PMS5003;66430;50.182;11.704;2023-04-25T08:37:06;12;12;
77365;PMS5003;66430;50.182;11.704;2023-04-25T08:39:31;15;13;
77365;PMS5003;66430;50.182;11.704;2023-04-25T08:41:57;10;10;
77365;PMS5003;66430;50.182;11.704;2023-04-25T08:44:22;16;14;
77365;PMS5003;66430;50.182;11.704;2023-04-25T08:46:47;11;11;
77365;PMS5003;66430;50.182;11.704;2023-04-25T08:49:13;11;10;
77365;PMS5003;66430;50.182;11.704;2023-04-25T08:51:40;12;11;
77365;PMS5003;66430;50.182;11.704;2023-04-25T08:54:06;11;10;
77365;PMS5003;66430;50.182;11.704;2023-04-25T08:56:29;14;12;
77365;PMS5003;66430;50.182;11.704;2023-04-25T08:58:55;15;14;
77365;PMS5003;66430;50.182;11.704;2023-04-25T09:01:20;14;12;
77365;PMS5003;66430;50.182;11.704;2023-04-25T09:03:45;12;11;
77365;PMS5003;66430;50.182;11.704;2023-04-25T09:06:11;11;11;
77365;PMS5003;66430;50.182;11.704;2023-04-25T09:08:36;12;11;
77365;PMS5003;66430;50.182;11.704;2023-04-25T09:11:02;11;11;
77365;PMS5003;66430;50.182;11.704;2023-04-25T09:13:27;12;12;
77365;PMS5003;66430;50.182;11.704;2023-04-25T09:15:53;12;11;
77365;PMS5003;66430;50.182;11.704;2023-04-25T09:18:23;14;11;
77365;PMS5003;66430;50.182;11.704;2023-04-25T09:20:43;12;11;
77365;PMS5003;66430;50.182;11.704;2023-04-25T09:23:08;8;7;
77365;PMS5003;66430;50.182;11.704;2023-04-25T09:25:34;9;8;
77365;PMS5003;66430;50.182;11.704;2023-04-25T09:27:59;9;9;
77365;PMS5003;66430;50.182;11.704;2023-04-25T09:30:28;9;9;
77365;PMS5003;66430;50.182;11.704;2023-04-25T09:32:50;8;8;
77365;PMS5003;66430;50.182;11.704;2023-04-25T09:37:42;7;7;
77365;PMS5003;66430;50.182;11.704;2023-04-25T09:40:07;9;9;
77365;PMS5003;66430;50.182;11.704;2023-04-25T09:42:32;9;8;
77365;PMS5003;66430;50.182;11.704;2023-04-25T09:44:58;12;8;
77365;PMS5003;66430;50.182;11.704;2023-04-25T09:47:25;12;11;
77365;PMS5003;66430;50.182;11.704;2023-04-25T09:49:49;11;10;
77365;PMS5003;66430;50.182;11.704;2023-04-25T09:52:15;6;6;
77365;PMS5003;66430;50.182;11.704;2023-04-25T09:54:40;6;6;
77365;PMS5003;66430;50.182;11.704;2023-04-25T09:57:08;8;8;
77365;PMS5003;66430;50.182;11.704;2023-04-25T09:59:31;7;6;
77365;PMS5003;66430;50.182;11.704;2023-04-25T10:01:56;8;7;
77365;PMS5003;66430;50.182;11.704;2023-04-25T10:04:22;8;8;
77365;PMS5003;66430;50.182;11.704;2023-04-25T10:06:48;10;7;
77365;PMS5003;66430;50.182;11.704;2023-04-25T10:09:12;8;8;
77365;PMS5003;66430;50.182;11.704;2023-04-25T10:11:38;11;7;
77365;PMS5003;66430;50.182;11.704;2023-04-25T10:14:04;9;9;
77365;PMS5003;66430;50.182;11.704;2023-04-25T10:16:29;10;10;
77365;PMS5003;66430;50.182;11.704;2023-04-25T10:18:54;10;7;
77365;PMS5003;66430;50.182;11.704;2023-04-25T10:21:20;8;8;
77365;PMS5003;66430;50.182;11.704;2023-04-25T10:23:46;9;8;
77365;PMS5003;66430;50.182;11.704;2023-04-25T10:26:11;6;6;
77365;PMS5003;66430;50.182;11.704;2023-04-25T10:31:02;6;6;
77365;PMS5003;66430;50.182;11.704;2023-04-25T10:33:32;6;6;
77365;PMS5003;66430;50.182;11.704;2023-04-25T10:35:53;6;6;
77365;PMS5003;66430;50.182;11.704;2023-04-25T10:38:18;7;5;
77365;PMS5003;66430;50.182;11.704;2023-04-25T10:48:00;4;4;
77365;PMS5003;66430;50.182;11.704;2023-04-25T10:50:25;8;7;
77365;PMS5003;66430;50.182;11.704;2023-04-25T10:52:51;7;4;
77365;PMS5003;66430;50.182;11.704;2023-04-25T10:55:17;8;8;
77365;PMS5003;66430;50.182;11.704;2023-04-25T10:57:42;7;7;
77365;PMS5003;66430;50.182;11.704;2023-04-25T11:00:09;6;6;
77365;PMS5003;66430;50.182;11.704;2023-04-25T11:02:36;10;9;
77365;PMS5003;66430;50.182;11.704;2023-04-25T11:04:58;7;7;
77365;PMS5003;66430;50.182;11.704;2023-04-25T11:07:26;6;6;
77365;PMS5003;66430;50.182;11.704;2023-04-25T11:09:49;8;8;
77365;PMS5003;66430;50.182;11.704;2023-04-25T11:12:14;7;7;
77365;PMS5003;66430;50.182;11.704;2023-04-25T11:14:39;11;10;
77365;PMS5003;66430;50.182;11.704;2023-04-25T11:17:05;9;9;
77365;PMS5003;66430;50.182;11.704;2023-04-25T11:19:31;9;9;
77365;PMS5003;66430;50.182;11.704;2023-04-25T11:21:56;9;9;
77365;PMS5003;66430;50.182;11.704;2023-04-25T11:24:25;10;9;
77365;PMS5003;66430;50.182;11.704;2023-04-25T11:26:47;7;6;
77365;PMS5003;66430;50.182;11.704;2023-04-25T11:29:13;11;9;
77365;PMS5003;66430;50.182;11.704;2023-04-25T11:31:38;7;7;
77365;PMS5003;66430;50.182;11.704;2023-04-25T11:34:04;7;7;
77365;PMS5003;66430;50.182;11.704;2023-04-25T11:36:29;8;8;
77365;PMS5003;66430;50.182;11.704;2023-04-25T11:38:54;8;8;
77365;PMS5003;66430;50.182;11.704;2023-04-25T11:41:20;6;6;
77365;PMS5003;66430;50.182;11.704;2023-04-25T11:43:45;6;5;
77365;PMS5003;66430;50.182;11.704;2023-04-25T11:46:11;7;7;
77365;PMS5003;66430;50.182;11.704;2023-04-25T11:48:37;10;8;
77365;PMS5003;66430;50.182;11.704;2023-04-25T11:51:02;8;7;
77365;PMS5003;66430;50.182;11.704;2023-04-25T11:53:32;9;7;
77365;PMS5003;66430;50.182;11.704;2023-04-25T11:55:52;6;6;
77365;PMS5003;66430;50.182;11.704;2023-04-25T11:58:18;7;7;
77365;PMS5003;66430;50.182;11.704;2023-04-25T12:00:43;7;4;
77365;PMS5003;66430;50.182;11.704;2023-04-25T12:03:09;4;4;
77365;PMS5003;66430;50.182;11.704;2023-04-25T12:05:34;9;8;
77365;PMS5003;66430;50.182;11.704;2023-04-25T12:10:25;6;5;
77365;PMS5003;66430;50.182;11.704;2023-04-25T12:12:51;5;5;
77365;PMS5003;66430;50.182;11.704;2023-04-25T12:15:17;5;5;
77365;PMS5003;66430;50.182;11.704;2023-04-25T12:17:44;5;5;
77365;PMS5003;66430;50.182;11.704;2023-04-25T12:20:09;7;6;
77365;PMS5003;66430;50.182;11.704;2023-04-25T12:22:33;7;7;
77365;PMS5003;66430;50.182;11.704;2023-04-25T12:24:59;7;7;
77365;PMS5003;66430;50.182;11.704;2023-04-25T12:27:25;6;6;
77365;PMS5003;66430;50.182;11.704;2023-04-25T12:29:51;7;7;
77365;PMS5003;66430;50.182;11.704;2023-04-25T12:32:15;4;4;
77365;PMS5003;66430;50.182;11.704;2023-04-25T12:34:40;6;6;
77365;PMS5003;66430;50.182;11.704;2023-04-25T12:37:06;4;4;
77365;PMS5003;66430;50.182;11.704;2023-04-25T12:39:31;2;2;
77365;PMS5003;66430;50.182;11.704;2023-04-25T12:41:56;3;3;
77365;PMS5003;66430;50.182;11.704;2023-04-25T12:44:22;1;1;
77365;PMS5003;66430;50.182;11.704;2023-04-25T12:46:48;3;3;
77365;PMS5003;66430;50.182;11.704;2023-04-25T12:49:13;5;4;
77365;PMS5003;66430;50.182;11.704;2023-04-25T12:51:44;4;4;
77365;PMS5003;66430;50.182;11.704;2023-04-25T12:54:05;4;4;
77365;PMS5003;66430;50.182;11.704;2023-04-25T12:56:29;4;4;
77365;PMS5003;66430;50.182;11.704;2023-04-25T12:58:55;4;4;
77365;PMS5003;66430;50.182;11.704;2023-04-25T13:01:21;3;3;
77365;PMS5003;66430;50.182;11.704;2023-04-25T13:03:46;3;3;
77365;PMS5003;66430;50.182;11.704;2023-04-25T13:06:12;3;3;
77365;PMS5003;66430;50.182;11.704;2023-04-25T13:08:37;5;4;
77365;PMS5003;66430;50.182;11.704;2023-04-25T13:11:03;5;4;
77365;PMS5003;66430;50.182;11.704;2023-04-25T13:13:28;2;2;
77365;PMS5003;66430;50.182;11.704;2023-04-25T13:15:54;3;3;
77365;PMS5003;66430;50.182;11.704;2023-04-25T13:18:19;4;3;
77365;PMS5003;66430;50.182;11.704;2023-04-25T13:20:45;1;1;
77365;PMS5003;66430;50.182;11.704;2023-04-25T13:23:10;2;2;
77365;PMS5003;66430;50.182;11.704;2023-04-25T13:25:36;3;3;
77365;PMS5003;66430;50.182;11.704;2023-04-25T13:28:01;3;3;
77365;PMS5003;66430;50.182;11.704;2023-04-25T13:30:27;3;3;
77365;PMS5003;66430;50.182;11.704;2023-04-25T13:32:57;2;2;
77365;PMS5003;66430;50.182;11.704;2023-04-25T13:35:18;3;3;
77365;PMS5003;66430;50.182;11.704;2023-04-25T13:37:43;6;6;
77365;PMS5003;66430;50.182;11.704;2023-04-25T13:40:09;2;2;
77365;PMS5003;66430;50.182;11.704;2023-04-25T13:42:34;2;2;
77365;PMS5003;66430;50.182;11.704;2023-04-25T13:45:00;4;4;
77365;PMS5003;66430;50.182;11.704;2023-04-25T13:47:25;5;5;
77365;PMS5003;66430;50.182;11.704;2023-04-25T13:49:51;4;4;
77365;PMS5003;66430;50.182;11.704;2023-04-25T13:52:16;4;4;
77365;PMS5003;66430;50.182;11.704;2023-04-25T13:54:41;4;4;
77365;PMS5003;66430;50.182;11.704;2023-04-25T13:57:07;4;4;
77365;PMS5003;66430;50.182;11.704;2023-04-25T13:59:33;3;3;
77365;PMS5003;66430;50.182;11.704;2023-04-25T14:01:58;5;5;
77365;PMS5003;66430;50.182;11.704;2023-04-25T14:04:24;5;5;
77365;PMS5003;66430;50.182;11.704;2023-04-25T14:06:49;4;4;
77365;PMS5003;66430;50.182;11.704;2023-04-25T14:09:15;4;4;
77365;PMS5003;66430;50.182;11.704;2023-04-25T14:11:40;4;4;
77365;PMS5003;66430;50.182;11.704;2023-04-25T14:14:06;7;6;
77365;PMS5003;66430;50.182;11.704;2023-04-25T14:16:31;3;3;
77365;PMS5003;66430;50.182;11.704;2023-04-25T14:18:57;5;5;
77365;PMS5003;66430;50.182;11.704;2023-04-25T14:21:22;5;4;
77365;PMS5003;66430;50.182;11.704;2023-04-25T14:23:49;6;6;
77365;PMS5003;66430;50.182;11.704;2023-04-25T14:26:13;5;5;
77365;PMS5003;66430;50.182;11.704;2023-04-25T14:28:39;5;5;
77365;PMS5003;66430;50.182;11.704;2023-04-25T14:31:04;5;5;
77365;PMS5003;66430;50.182;11.704;2023-04-25T14:33:30;5;4;
77365;PMS5003;66430;50.182;11.704;2023-04-25T14:35:55;9;9;
77365;PMS5003;66430;50.182;11.704;2023-04-25T14:38:21;6;6;
77365;PMS5003;66430;50.182;11.704;2023-04-25T14:40:46;4;4;
77365;PMS5003;66430;50.182;11.704;2023-04-25T14:43:12;3;3;
77365;PMS5003;66430;50.182;11.704;2023-04-25T14:45:37;5;5;
77365;PMS5003;66430;50.182;11.704;2023-04-25T14:48:03;6;6;
77365;PMS5003;66430;50.182;11.704;2023-04-25T14:50:28;5;5;
77365;PMS5003;66430;50.182;11.704;2023-04-25T14:52:54;8;8;
77365;PMS5003;66430;50.182;11.704;2023-04-25T14:55:20;6;6;
77365;PMS5003;66430;50.182;11.704;2023-04-25T14:57:44;7;7;
77365;PMS5003;66430;50.182;11.704;2023-04-25T15:00:11;9;9;
77365;PMS5003;66430;50.182;11.704;2023-04-25T15:02:36;14;12;
77365;PMS5003;66430;50.182;11.704;2023-04-25T15:05:02;7;7;
77365;PMS5003;66430;50.182;11.704;2023-04-25T15:07:27;8;6;
77365;PMS5003;66430;50.182;11.704;2023-04-25T15:09:53;8;8;
77365;PMS5003;66430;50.182;11.704;2023-04-25T15:12:18;9;8;
77365;PMS5003;66430;50.182;11.704;2023-04-25T15:14:44;11;6;
77365;PMS5003;66430;50.182;11.704;2023-04-25T15:17:09;11;8;
77365;PMS5003;66430;50.182;11.704;2023-04-25T15:19:34;7;7;
77365;PMS5003;66430;50.182;11.704;2023-04-25T15:22:00;8;7;
77365;PMS5003;66430;50.182;11.704;2023-04-25T15:24:25;7;7;
77365;PMS5003;66430;50.182;11.704;2023-04-25T15:26:51;8;7;
77365;PMS5003;66430;50.182;11.704;2023-04-25T15:29:16;8;7;
77365;PMS5003;66430;50.182;11.704;2023-04-25T15:31:42;6;6;
77365;PMS5003;66430;50.182;11.704;2023-04-25T15:34:07;12;9;
77365;PMS5003;66430;50.182;11.704;2023-04-25T15:36:33;9;8;
77365;PMS5003;66430;50.182;11.704;2023-04-25T15:38:59;9;9;
77365;PMS5003;66430;50.182;11.704;2023-04-25T15:41:24;8;6;
77365;PMS5003;66430;50.182;11.704;2023-04-25T15:43:50;10;7;
77365;PMS5003;66430;50.182;11.704;2023-04-25T15:46:16;8;6;
77365;PMS5003;66430;50.182;11.704;2023-04-25T15:48:41;7;7;
77365;PMS5003;66430;50.182;11.704;2023-04-25T15:51:06;6;6;
77365;PMS5003;66430;50.182;11.704;2023-04-25T15:53:32;8;7;
77365;PMS5003;66430;50.182;11.704;2023-04-25T15:55:57;8;6;
77365;PMS5003;66430;50.182;11.704;2023-04-25T15:58:23;9;8;
77365;PMS5003;66430;50.182;11.704;2023-04-25T16:00:48;6;6;
77365;PMS5003;66430;50.182;11.704;2023-04-25T16:03:14;9;7;
77365;PMS5003;66430;50.182;11.704;2023-04-25T16:05:39;11;8;
77365;PMS5003;66430;50.182;11.704;2023-04-25T16:08:05;11;8;
77365;PMS5003;66430;50.182;11.704;2023-04-25T16:10:30;7;4;
77365;PMS5003;66430;50.182;11.704;2023-04-25T16:12:56;7;6;
77365;PMS5003;66430;50.182;11.704;2023-04-25T16:15:21;12;9;
77365;PMS5003;66430;50.182;11.704;2023-04-25T16:17:47;11;7;
77365;PMS5003;66430;50.182;11.704;2023-04-25T16:20:12;10;9;